Time;durP1;ratioP1;P1;durP2;ratioP2;P2;SDS_P1;SDS_P2;PMS_P1;PMS_P2;Temp;Humidity;BMP_temperature;BMP_pressure;BME280_temperature;BME280_humidity;BME280_pressure;Samples;Min_cycle;Max_cycle;Signal;HPM_P1;HPM_P2
2021/05/15 00:02:25;;;;;;;;;;;8.40;91.10;;;;;;5072438;28;19984;-66
2021/05/15 00:04:50;;;;;;;;;;;8.40;91.20;;;;;;5072488;28;19908;-67
2021/05/15 00:07:18;;;;;;;;;;;8.50;91.20;;;;;;5071954;28;19908;-68
2021/05/15 00:09:44;;;;;;;;;;;8.60;91.30;;;;;;5089485;28;19953;-67
2021/05/15 00:12:09;;;;;;;;;;;8.70;91.10;;;;;;5092597;28;20289;-65
2021/05/15 00:14:35;;;;;;;;;;;8.80;91.00;;;;;;5089751;28;20293;-67
2021/05/15 00:17:01;;;;;;;;;;;8.80;90.80;;;;;;5071993;28;20358;-68
2021/05/15 00:19:26;;;;;;;;;;;8.80;90.40;;;;;;5072236;28;19904;-67
2021/05/15 00:21:52;;;;;;;;;;;8.70;90.40;;;;;;5072067;28;20653;-66
2021/05/15 00:24:18;;;;;;;;;;;8.80;90.40;;;;;;5072037;28;20365;-67
2021/05/15 00:26:43;;;;;;;;;;;8.80;90.40;;;;;;5071917;28;19939;-68
2021/05/15 00:29:09;;;;;;;;;;;8.80;90.30;;;;;;5072157;28;19908;-67
2021/05/15 00:31:35;;;;;;;;;;;8.80;90.50;;;;;;5072101;28;19940;-65
2021/05/15 00:34:00;;;;;;;;;;;8.90;90.40;;;;;;5071985;28;20370;-67
2021/05/15 00:36:26;;;;;;;;;;;8.90;90.40;;;;;;5071614;28;19991;-67
2021/05/15 00:38:51;;;;;;;;;;;8.90;90.40;;;;;;5071946;28;20408;-66
2021/05/15 00:41:17;;;;;;;;;;;8.80;90.40;;;;;;5072118;28;19905;-66
2021/05/15 00:46:32;;;;;;;;;;;8.90;90.40;;;;;;5072239;28;19999;-67
2021/05/15 00:48:58;;;;;;;;;;;8.90;89.90;;;;;;5071957;28;19952;-66
2021/05/15 00:51:23;;;;;;;;;;;8.80;89.80;;;;;;5072047;28;19922;-67
2021/05/15 00:53:49;;;;;;;;;;;8.80;89.70;;;;;;5071850;28;19904;-67
2021/05/15 00:56:14;;;;;;;;;;;8.70;89.60;;;;;;5071650;28;20008;-66
2021/05/15 00:58:40;;;;;;;;;;;8.60;89.60;;;;;;5070115;28;19908;-65
2021/05/15 01:01:06;;;;;;;;;;;8.60;89.50;;;;;;5070383;28;19943;-66
2021/05/15 01:03:31;;;;;;;;;;;8.40;89.50;;;;;;5072750;28;19920;-67
2021/05/15 01:05:56;;;;;;;;;;;8.30;89.60;;;;;;5075776;28;19908;-67
2021/05/15 01:08:22;;;;;;;;;;;8.20;89.90;;;;;;5075472;28;19957;-65
2021/05/15 01:10:47;;;;;;;;;;;8.10;90.00;;;;;;5075848;28;19927;-67
2021/05/15 01:13:13;;;;;;;;;;;8.00;90.00;;;;;;5074374;28;19905;-68
2021/05/15 01:15:39;;;;;;;;;;;8.00;90.20;;;;;;5074860;28;19904;-68
2021/05/15 01:18:04;;;;;;;;;;;8.00;90.30;;;;;;5075399;28;19912;-66
2021/05/15 01:20:31;;;;;;;;;;;8.00;90.20;;;;;;5075607;28;20409;-67
2021/05/15 01:23:00;;;;;;;;;;;7.80;90.20;;;;;;5074327;28;19934;-67
2021/05/15 01:25:25;;;;;;;;;;;7.80;90.30;;;;;;5075534;28;20332;-68
2021/05/15 01:27:51;;;;;;;;;;;7.70;90.60;;;;;;5075444;28;19909;-67
2021/05/15 01:30:17;;;;;;;;;;;7.70;90.50;;;;;;5075173;28;20369;-65
2021/05/15 01:32:46;;;;;;;;;;;7.70;90.50;;;;;;5075333;28;19905;-67
2021/05/15 01:35:12;;;;;;;;;;;7.70;90.60;;;;;;5074031;28;20402;-67
2021/05/15 01:37:37;;;;;;;;;;;7.60;90.80;;;;;;5073731;28;19905;-67
2021/05/15 01:40:04;;;;;;;;;;;7.60;90.70;;;;;;5075178;28;20297;-67
2021/05/15 01:42:30;;;;;;;;;;;7.60;90.70;;;;;;5073755;28;19905;-67
2021/05/15 01:44:55;;;;;;;;;;;7.50;90.80;;;;;;5074975;28;19909;-67
2021/05/15 01:47:21;;;;;;;;;;;7.50;90.90;;;;;;5074887;28;19908;-67
2021/05/15 01:49:47;;;;;;;;;;;7.50;91.20;;;;;;5075124;28;19908;-65
2021/05/15 01:52:13;;;;;;;;;;;7.40;91.10;;;;;;5075097;28;19911;-65
2021/05/15 01:54:39;;;;;;;;;;;7.50;91.20;;;;;;5075249;28;19911;-67
2021/05/15 01:57:04;;;;;;;;;;;7.40;91.00;;;;;;5073827;28;20321;-68
2021/05/15 01:59:30;;;;;;;;;;;7.40;90.80;;;;;;5074796;28;19904;-67
2021/05/15 02:01:55;;;;;;;;;;;7.30;90.90;;;;;;5074784;28;19935;-67
2021/05/15 02:04:21;;;;;;;;;;;7.30;91.10;;;;;;5073251;28;20422;-68
2021/05/15 02:06:46;;;;;;;;;;;7.30;91.10;;;;;;5074594;28;20436;-67
2021/05/15 02:09:12;;;;;;;;;;;7.20;91.00;;;;;;5077580;28;20266;-67
2021/05/15 02:11:39;;;;;;;;;;;7.20;91.10;;;;;;5074671;28;19904;-67
2021/05/15 02:14:05;;;;;;;;;;;7.20;91.20;;;;;;5074404;28;19951;-67
2021/05/15 02:16:30;;;;;;;;;;;7.20;91.50;;;;;;5073639;28;19904;-67
2021/05/15 02:18:56;;;;;;;;;;;7.10;91.60;;;;;;5073427;28;20267;-64
2021/05/15 02:21:21;;;;;;;;;;;7.10;91.70;;;;;;5074486;28;19908;-63
2021/05/15 02:23:47;;;;;;;;;;;7.10;91.90;;;;;;5073403;28;19908;-66
2021/05/15 02:26:12;;;;;;;;;;;7.10;91.90;;;;;;5074289;28;20405;-67
2021/05/15 02:28:38;;;;;;;;;;;7.00;91.90;;;;;;5074240;28;20378;-67
2021/05/15 02:31:03;;;;;;;;;;;7.00;92.00;;;;;;5074442;28;19978;-67
2021/05/15 02:33:28;;;;;;;;;;;7.00;92.00;;;;;;5074062;28;19904;-67
2021/05/15 02:35:54;;;;;;;;;;;7.00;91.90;;;;;;5074250;28;19920;-67
2021/05/15 02:38:20;;;;;;;;;;;7.00;91.80;;;;;;5072985;28;20401;-66
2021/05/15 02:40:46;;;;;;;;;;;7.00;91.80;;;;;;5074202;28;19910;-66
2021/05/15 02:43:12;;;;;;;;;;;6.90;91.90;;;;;;5073991;28;19999;-67
2021/05/15 02:45:38;;;;;;;;;;;6.90;91.90;;;;;;5072913;28;20091;-67
2021/05/15 02:48:04;;;;;;;;;;;6.80;91.90;;;;;;5073928;28;20377;-67
2021/05/15 02:50:29;;;;;;;;;;;6.80;91.90;;;;;;5072751;28;19904;-68
2021/05/15 02:52:55;;;;;;;;;;;6.80;91.80;;;;;;5073823;28;19904;-67
2021/05/15 02:55:22;;;;;;;;;;;6.70;91.70;;;;;;5074002;28;19998;-67
2021/05/15 02:57:47;;;;;;;;;;;6.70;91.90;;;;;;5072300;28;19997;-68
2021/05/15 03:00:15;;;;;;;;;;;6.70;92.10;;;;;;5073764;28;19904;-68
2021/05/15 03:02:41;;;;;;;;;;;6.70;92.10;;;;;;5072297;28;19982;-68
2021/05/15 03:05:08;;;;;;;;;;;6.60;92.20;;;;;;5073593;28;19908;-68
2021/05/15 03:07:34;;;;;;;;;;;6.70;92.20;;;;;;5073329;28;19904;-68
2021/05/15 03:09:59;;;;;;;;;;;6.70;92.10;;;;;;5076448;28;19974;-67
2021/05/15 03:12:25;;;;;;;;;;;6.70;92.10;;;;;;5073340;28;19904;-65
2021/05/15 03:14:50;;;;;;;;;;;6.80;92.20;;;;;;5073363;28;19952;-67
2021/05/15 03:17:15;;;;;;;;;;;6.70;92.40;;;;;;5073184;28;20317;-68
2021/05/15 03:19:41;;;;;;;;;;;6.80;92.60;;;;;;5073446;28;19962;-67
2021/05/15 03:22:06;;;;;;;;;;;6.80;92.70;;;;;;5073352;28;19904;-67
2021/05/15 03:24:32;;;;;;;;;;;6.80;92.80;;;;;;5073455;28;19956;-68
2021/05/15 03:26:58;;;;;;;;;;;6.80;93.00;;;;;;5072110;28;19904;-66
2021/05/15 03:29:24;;;;;;;;;;;6.90;93.20;;;;;;5073371;28;19995;-66
2021/05/15 03:31:49;;;;;;;;;;;6.90;93.10;;;;;;5073275;28;19912;-65
2021/05/15 03:34:15;;;;;;;;;;;6.80;93.00;;;;;;5073340;28;19950;-66
2021/05/15 03:36:40;;;;;;;;;;;6.90;93.30;;;;;;5073094;28;19905;-67
2021/05/15 03:39:06;;;;;;;;;;;7.00;93.20;;;;;;5073145;28;19957;-67
2021/05/15 03:41:32;;;;;;;;;;;6.90;93.00;;;;;;5073046;28;19908;-66
2021/05/15 03:43:57;;;;;;;;;;;7.00;92.80;;;;;;5072824;28;19923;-67
2021/05/15 03:46:23;;;;;;;;;;;7.00;92.80;;;;;;5071278;28;19919;-68
2021/05/15 03:48:48;;;;;;;;;;;7.10;92.70;;;;;;5072911;28;19908;-67
2021/05/15 03:51:14;;;;;;;;;;;7.30;92.70;;;;;;5071583;28;20376;-67
2021/05/15 03:53:39;;;;;;;;;;;7.80;92.40;;;;;;5072665;28;20004;-67
2021/05/15 03:56:05;;;;;;;;;;;8.40;91.00;;;;;;5072410;28;20393;-69
2021/05/15 03:58:30;;;;;;;;;;;8.90;88.70;;;;;;5072552;28;19948;-67
2021/05/15 04:00:56;;;;;;;;;;;9.60;86.90;;;;;;5072373;28;19919;-64
2021/05/15 04:03:22;;;;;;;;;;;10.20;83.70;;;;;;5072293;28;20042;-68
2021/05/15 04:05:47;;;;;;;;;;;10.60;81.30;;;;;;5072194;28;19967;-67
2021/05/15 04:08:13;;;;;;;;;;;11.10;78.90;;;;;;5074051;28;19904;-65
2021/05/15 04:10:38;;;;;;;;;;;11.40;77.90;;;;;;5072263;28;20411;-68
2021/05/15 04:13:22;;;;;;;;;;;11.80;77.00;;;;;;5072350;28;19904;-67
2021/05/15 04:15:55;;;;;;;;;;;12.20;75.00;;;;;;5072260;28;19927;-65
2021/05/15 04:18:20;;;;;;;;;;;13.40;72.20;;;;;;5072186;28;19905;-69
2021/05/15 04:20:46;;;;;;;;;;;14.30;68.00;;;;;;5072269;28;19957;-66
2021/05/15 04:23:14;;;;;;;;;;;15.50;63.30;;;;;;5072110;28;19908;-67
2021/05/15 04:25:40;;;;;;;;;;;16.50;59.30;;;;;;5070902;28;19912;-68
2021/05/15 04:28:06;;;;;;;;;;;17.70;56.60;;;;;;5070731;28;19954;-65
2021/05/15 04:30:32;;;;;;;;;;;18.70;51.70;;;;;;5072013;28;19967;-65
2021/05/15 04:32:57;;;;;;;;;;;19.20;49.70;;;;;;5072032;28;19997;-65
2021/05/15 04:35:23;;;;;;;;;;;19.00;49.20;;;;;;5072079;28;19944;-67
2021/05/15 04:37:49;;;;;;;;;;;18.80;49.70;;;;;;5071963;28;19951;-66
2021/05/15 04:40:15;;;;;;;;;;;19.50;48.50;;;;;;5071974;28;19912;-66
2021/05/15 04:42:40;;;;;;;;;;;19.20;49.00;;;;;;5070507;28;19912;-66
2021/05/15 04:45:07;;;;;;;;;;;19.70;48.40;;;;;;5071907;28;20015;-66
2021/05/15 04:47:32;;;;;;;;;;;20.70;46.80;;;;;;5071670;28;20366;-65
2021/05/15 04:49:58;;;;;;;;;;;21.50;45.00;;;;;;5072418;28;19950;-67
2021/05/15 04:52:23;;;;;;;;;;;21.80;44.30;;;;;;5071822;28;19940;-68
2021/05/15 04:54:49;;;;;;;;;;;22.20;42.50;;;;;;5070591;28;20274;-66
2021/05/15 04:57:16;;;;;;;;;;;22.90;40.00;;;;;;5071826;28;19904;-66
2021/05/15 04:59:42;;;;;;;;;;;22.50;41.30;;;;;;5071742;28;20214;-66
2021/05/15 05:02:09;;;;;;;;;;;22.90;40.00;;;;;;5071807;28;19905;-66
2021/05/15 05:04:35;;;;;;;;;;;22.50;40.90;;;;;;5071545;28;19958;-67
2021/05/15 05:07:00;;;;;;;;;;;22.50;41.20;;;;;;5071500;28;20009;-68
2021/05/15 05:09:26;;;;;;;;;;;21.90;42.00;;;;;;5074789;28;19961;-67
2021/05/15 05:11:51;;;;;;;;;;;21.50;43.00;;;;;;5070453;28;19915;-66
2021/05/15 05:14:19;;;;;;;;;;;21.10;44.70;;;;;;5071559;28;19943;-67
2021/05/15 05:16:44;;;;;;;;;;;21.40;43.50;;;;;;5071437;28;19995;-68
2021/05/15 05:19:12;;;;;;;;;;;22.50;41.70;;;;;;5070579;28;20418;-66
2021/05/15 05:21:38;;;;;;;;;;;22.50;41.00;;;;;;5071687;28;19916;-67
2021/05/15 05:24:03;;;;;;;;;;;23.30;39.70;;;;;;5071660;28;19928;-65
2021/05/15 05:26:29;;;;;;;;;;;22.80;39.70;;;;;;5071244;28;19904;-67
2021/05/15 05:28:55;;;;;;;;;;;22.00;42.70;;;;;;5071446;28;20506;-68
2021/05/15 05:31:20;;;;;;;;;;;21.80;42.60;;;;;;5071360;28;19922;-67
2021/05/15 05:33:46;;;;;;;;;;;21.50;43.80;;;;;;5070250;28;19904;-67
2021/05/15 05:36:12;;;;;;;;;;;22.70;41.40;;;;;;5071163;28;19920;-67
2021/05/15 05:38:37;;;;;;;;;;;22.90;41.20;;;;;;5071545;28;20294;-66
2021/05/15 05:41:03;;;;;;;;;;;23.50;39.80;;;;;;5071457;28;19904;-65
2021/05/15 05:43:28;;;;;;;;;;;23.40;39.80;;;;;;5071197;28;20354;-65
2021/05/15 05:45:54;;;;;;;;;;;22.70;40.60;;;;;;5071367;28;19904;-65
2021/05/15 05:48:19;;;;;;;;;;;21.50;42.90;;;;;;5069873;28;19912;-66
2021/05/15 05:50:45;;;;;;;;;;;20.90;45.30;;;;;;5072985;28;20190;-65
2021/05/15 05:53:11;;;;;;;;;;;20.70;45.80;;;;;;5074995;28;19905;-66
2021/05/15 05:55:36;;;;;;;;;;;21.70;43.50;;;;;;5074857;28;19924;-66
2021/05/15 05:58:05;;;;;;;;;;;22.60;42.00;;;;;;5073959;28;19904;-67
2021/05/15 06:00:31;;;;;;;;;;;23.20;40.30;;;;;;5073355;28;19908;-66
2021/05/15 06:02:57;;;;;;;;;;;23.70;39.90;;;;;;5074588;28;19924;-66
2021/05/15 06:05:22;;;;;;;;;;;23.00;40.80;;;;;;5073306;28;19913;-68
2021/05/15 06:07:48;;;;;;;;;;;23.70;39.90;;;;;;5075392;28;20386;-66
2021/05/15 06:10:13;;;;;;;;;;;24.30;38.20;;;;;;5076449;28;19905;-66
2021/05/15 06:12:44;;;;;;;;;;;25.70;36.20;;;;;;5074485;28;19930;-67
2021/05/15 06:15:10;;;;;;;;;;;27.20;33.00;;;;;;5074490;28;19908;-65
2021/05/15 06:17:36;;;;;;;;;;;26.80;33.90;;;;;;5074206;28;19910;-66
2021/05/15 06:20:02;;;;;;;;;;;27.90;31.60;;;;;;5073127;28;20290;-66
2021/05/15 06:22:28;;;;;;;;;;;29.00;31.20;;;;;;5074258;28;19904;-66
2021/05/15 06:24:53;;;;;;;;;;;29.70;28.60;;;;;;5074143;28;19995;-66
2021/05/15 06:27:19;;;;;;;;;;;29.90;27.60;;;;;;5072632;28;20385;-66
2021/05/15 06:29:44;;;;;;;;;;;30.70;26.60;;;;;;5073950;28;19904;-66
2021/05/15 06:32:10;;;;;;;;;;;31.40;25.80;;;;;;5073975;28;19908;-65
2021/05/15 06:34:36;;;;;;;;;;;31.60;24.90;;;;;;5074060;28;20408;-65
2021/05/15 06:37:02;;;;;;;;;;;31.70;24.20;;;;;;5074088;28;20365;-68
2021/05/15 06:39:27;;;;;;;;;;;32.00;23.80;;;;;;5074394;28;20362;-66
2021/05/15 06:41:52;;;;;;;;;;;32.40;24.00;;;;;;5073938;28;19919;-66
2021/05/15 06:44:18;;;;;;;;;;;32.50;23.70;;;;;;5072565;28;19908;-66
2021/05/15 06:46:43;;;;;;;;;;;32.50;23.10;;;;;;5073649;28;19905;-65
2021/05/15 06:49:12;;;;;;;;;;;32.60;23.80;;;;;;5073633;28;19912;-66
2021/05/15 06:51:38;;;;;;;;;;;32.20;23.30;;;;;;5073477;28;19908;-66
2021/05/15 06:54:03;;;;;;;;;;;32.00;23.70;;;;;;5073569;28;19949;-66
2021/05/15 06:56:32;;;;;;;;;;;32.60;23.80;;;;;;5073451;28;19912;-66
2021/05/15 06:58:57;;;;;;;;;;;32.00;24.10;;;;;;5073573;28;19911;-66
2021/05/15 07:01:23;;;;;;;;;;;31.70;24.00;;;;;;5071878;28;19904;-66
2021/05/15 07:03:48;;;;;;;;;;;31.90;23.90;;;;;;5072919;28;19916;-68
2021/05/15 07:06:14;;;;;;;;;;;31.90;24.40;;;;;;5072855;28;20387;-65
2021/05/15 07:08:42;;;;;;;;;;;31.90;24.00;;;;;;5076347;28;19927;-66
2021/05/15 07:11:07;;;;;;;;;;;31.50;24.80;;;;;;5073275;28;19965;-66
2021/05/15 07:13:33;;;;;;;;;;;30.20;25.90;;;;;;5073908;28;19904;-66
2021/05/15 07:15:58;;;;;;;;;;;29.50;27.20;;;;;;5073165;28;19905;-66
2021/05/15 07:18:24;;;;;;;;;;;29.60;27.30;;;;;;5071629;28;19904;-66
2021/05/15 07:20:51;;;;;;;;;;;30.30;26.10;;;;;;5072996;28;19905;-67
2021/05/15 07:23:17;;;;;;;;;;;30.50;25.80;;;;;;5073230;28;20021;-67
2021/05/15 07:25:45;;;;;;;;;;;30.90;25.80;;;;;;5072749;28;20504;-67
2021/05/15 07:28:11;;;;;;;;;;;30.50;25.80;;;;;;5071226;28;19912;-66
2021/05/15 07:30:36;;;;;;;;;;;30.10;26.30;;;;;;5073017;28;19904;-66
2021/05/15 07:33:02;;;;;;;;;;;29.60;27.00;;;;;;5072791;28;19954;-67
2021/05/15 07:35:27;;;;;;;;;;;29.40;28.10;;;;;;5071571;28;20357;-67
2021/05/15 07:37:55;;;;;;;;;;;29.10;27.90;;;;;;5072697;28;19904;-67
2021/05/15 07:40:21;;;;;;;;;;;29.50;27.70;;;;;;5072656;28;19996;-67
2021/05/15 07:42:46;;;;;;;;;;;29.40;27.00;;;;;;5072599;28;19952;-65
2021/05/15 07:45:13;;;;;;;;;;;29.80;26.80;;;;;;5072705;28;19914;-67
2021/05/15 07:47:39;;;;;;;;;;;29.20;27.00;;;;;;5072319;28;19904;-66
2021/05/15 07:50:05;;;;;;;;;;;29.00;27.00;;;;;;5072441;28;19904;-67
2021/05/15 07:52:31;;;;;;;;;;;29.90;26.00;;;;;;5072379;28;19904;-67
2021/05/15 07:54:56;;;;;;;;;;;29.50;26.60;;;;;;5072665;28;19916;-67
2021/05/15 07:57:21;;;;;;;;;;;29.20;26.90;;;;;;5072107;28;20493;-66
2021/05/15 07:59:47;;;;;;;;;;;28.90;27.70;;;;;;5071331;28;20381;-66
2021/05/15 08:02:12;;;;;;;;;;;28.00;28.20;;;;;;5071466;28;19926;-66
2021/05/15 08:04:38;;;;;;;;;;;27.90;29.60;;;;;;5069673;28;19912;-67
2021/05/15 08:07:04;;;;;;;;;;;27.80;28.00;;;;;;5070778;28;19912;-66
2021/05/15 08:09:32;;;;;;;;;;;28.80;27.70;;;;;;5073908;28;19911;-67
2021/05/15 08:11:58;;;;;;;;;;;30.70;26.40;;;;;;5071103;28;19904;-66
2021/05/15 08:14:24;;;;;;;;;;;31.00;24.00;;;;;;5070445;28;20018;-66
2021/05/15 08:16:50;;;;;;;;;;;30.50;25.30;;;;;;5070804;28;19904;-68
2021/05/15 08:19:15;;;;;;;;;;;30.40;24.50;;;;;;5071033;28;19905;-66
2021/05/15 08:21:43;;;;;;;;;;;30.50;24.30;;;;;;5069504;28;19931;-67
2021/05/15 08:24:09;;;;;;;;;;;31.00;23.60;;;;;;5070463;28;19909;-65
2021/05/15 08:26:36;;;;;;;;;;;30.90;24.20;;;;;;5070820;28;20496;-68
2021/05/15 08:29:02;;;;;;;;;;;31.10;23.30;;;;;;5071176;28;19955;-67
2021/05/15 08:31:27;;;;;;;;;;;30.70;23.70;;;;;;5071300;28;19904;-67
2021/05/15 08:33:53;;;;;;;;;;;29.90;24.00;;;;;;5069946;28;19911;-65
2021/05/15 08:36:19;;;;;;;;;;;29.60;25.40;;;;;;5070734;28;20069;-66
2021/05/15 08:38:44;;;;;;;;;;;28.90;25.20;;;;;;5068851;28;19904;-66
2021/05/15 08:41:10;;;;;;;;;;;28.50;26.60;;;;;;5070658;28;19905;-67
2021/05/15 08:43:46;;;;;;;;;;;28.40;26.40;;;;;;5069113;28;19931;-67
2021/05/15 08:46:14;;;;;;;;;;;27.70;26.60;;;;;;5069644;28;20445;-66
2021/05/15 08:48:41;;;;;;;;;;;27.50;28.40;;;;;;5070873;28;19914;-66
2021/05/15 08:51:07;;;;;;;;;;;27.50;28.40;;;;;;5070712;28;19910;-65
2021/05/15 08:53:34;;;;;;;;;;;26.90;28.80;;;;;;5070225;28;19923;-67
2021/05/15 08:55:59;;;;;;;;;;;26.90;30.20;;;;;;5070488;28;19904;-67
2021/05/15 08:58:25;;;;;;;;;;;27.10;28.20;;;;;;5070246;28;19999;-65
2021/05/15 09:00:51;;;;;;;;;;;27.20;27.90;;;;;;5070340;28;19905;-67
2021/05/15 09:03:17;;;;;;;;;;;26.70;30.00;;;;;;5069929;28;19927;-68
2021/05/15 09:05:44;;;;;;;;;;;26.80;28.20;;;;;;5070182;28;19908;-66
2021/05/15 09:08:14;;;;;;;;;;;27.00;29.40;;;;;;5073211;28;19911;-66
2021/05/15 09:10:40;;;;;;;;;;;27.30;29.20;;;;;;5070384;28;19996;-66
2021/05/15 09:13:11;;;;;;;;;;;27.50;29.90;;;;;;5070294;28;19958;-67
2021/05/15 09:15:52;;;;;;;;;;;27.70;28.70;;;;;;5068898;28;19912;-66
2021/05/15 09:18:22;;;;;;;;;;;27.40;29.40;;;;;;5070024;28;20255;-67
2021/05/15 09:20:50;;;;;;;;;;;26.90;30.50;;;;;;5069165;28;20278;-66
2021/05/15 09:23:22;;;;;;;;;;;26.40;30.70;;;;;;5069132;28;19911;-67
2021/05/15 09:25:56;;;;;;;;;;;26.00;31.20;;;;;;5072008;28;19977;-67
2021/05/15 09:28:37;;;;;;;;;;;25.20;32.80;;;;;;5074294;28;19908;-67
2021/05/15 09:31:17;;;;;;;;;;;24.40;34.20;;;;;;5074048;28;19995;-67
2021/05/15 09:33:44;;;;;;;;;;;23.60;37.10;;;;;;5073964;28;20000;-66
2021/05/15 09:36:13;;;;;;;;;;;22.80;43.20;;;;;;5073580;28;19934;-67
2021/05/15 09:38:38;;;;;;;;;;;21.80;42.90;;;;;;5073794;28;20346;-65
2021/05/15 09:41:04;;;;;;;;;;;21.10;47.40;;;;;;5073966;28;19904;-67
2021/05/15 09:43:29;;;;;;;;;;;20.50;51.60;;;;;;5072394;28;19989;-68
2021/05/15 09:45:55;;;;;;;;;;;19.50;61.30;;;;;;5073613;28;19919;-70
2021/05/15 09:48:35;;;;;;;;;;;18.00;64.60;;;;;;5071979;28;19905;-68
2021/05/15 09:51:14;;;;;;;;;;;16.80;67.10;;;;;;5068344;28;19904;-67
2021/05/15 09:53:40;;;;;;;;;;;15.70;73.00;;;;;;5061677;28;19912;-66
2021/05/15 09:56:11;;;;;;;;;;;15.40;77.90;;;;;;5073729;28;19904;-66
2021/05/15 09:58:37;;;;;;;;;;;15.20;80.90;;;;;;5073621;28;19943;-65
2021/05/15 10:01:03;;;;;;;;;;;14.80;80.10;;;;;;5072555;28;19955;-68
2021/05/15 10:03:29;;;;;;;;;;;14.50;80.50;;;;;;5073473;28;19912;-66
2021/05/15 10:06:04;;;;;;;;;;;14.50;82.20;;;;;;5073521;28;19931;-66
2021/05/15 10:08:30;;;;;;;;;;;14.50;80.00;;;;;;5076468;28;19973;-67
2021/05/15 10:10:56;;;;;;;;;;;15.20;84.50;;;;;;5073865;28;19909;-68
2021/05/15 10:13:22;;;;;;;;;;;16.00;82.90;;;;;;5073587;28;19908;-66
2021/05/15 10:15:48;;;;;;;;;;;;;;;;;;5071815;28;19904;-67
2021/05/15 10:18:14;;;;;;;;;;;17.70;74.40;;;;;;5071702;28;19908;-68
2021/05/15 10:20:40;;;;;;;;;;;18.80;70.80;;;;;;5071732;28;19950;-66
2021/05/15 10:23:35;;;;;;;;;;;19.70;67.10;;;;;;5072961;28;19904;-67
2021/05/15 10:26:03;;;;;;;;;;;20.10;66.00;;;;;;5059552;28;19908;-69
2021/05/15 10:28:29;;;;;;;;;;;20.50;60.10;;;;;;5071512;28;19967;-68
2021/05/15 10:31:06;;;;;;;;;;;21.00;61.70;;;;;;5071778;28;19975;-68
2021/05/15 10:33:35;;;;;;;;;;;21.20;58.90;;;;;;5072666;28;19908;-66
2021/05/15 10:36:05;;;;;;;;;;;21.50;58.40;;;;;;5072161;28;19950;-68
2021/05/15 10:38:32;;;;;;;;;;;21.50;57.70;;;;;;5071723;28;20330;-67
2021/05/15 10:41:20;;;;;;;;;;;21.80;57.70;;;;;;5072904;28;19904;-68
2021/05/15 10:43:48;;;;;;;;;;;22.00;53.40;;;;;;5071347;28;19944;-69
2021/05/15 10:46:13;;;;;;;;;;;22.10;53.90;;;;;;5072626;28;19905;-66
2021/05/15 10:48:39;;;;;;;;;;;22.20;51.50;;;;;;5072704;28;19908;-66
2021/05/15 10:51:05;;;;;;;;;;;21.90;50.40;;;;;;5072670;28;19908;-67
2021/05/15 10:53:32;;;;;;;;;;;21.70;49.30;;;;;;5072625;28;20425;-68
2021/05/15 10:56:02;;;;;;;;;;;22.00;49.70;;;;;;5072551;28;20466;-66
2021/05/15 10:58:41;;;;;;;;;;;22.00;52.40;;;;;;5072178;28;19930;-69
2021/05/15 11:01:11;;;;;;;;;;;22.00;50.80;;;;;;5072285;28;19912;-66
2021/05/15 11:03:39;;;;;;;;;;;22.20;50.90;;;;;;5072098;28;19984;-68
2021/05/15 11:06:11;;;;;;;;;;;22.20;48.40;;;;;;5071984;28;20358;-69
2021/05/15 11:08:38;;;;;;;;;;;22.20;47.50;;;;;;5074985;28;19943;-66
2021/05/15 11:11:09;;;;;;;;;;;22.30;45.60;;;;;;5072174;28;19912;-69
2021/05/15 11:13:48;;;;;;;;;;;22.40;44.80;;;;;;5070836;28;20320;-68
2021/05/15 11:16:42;;;;;;;;;;;22.40;44.20;;;;;;5071955;28;20361;-66
2021/05/15 11:19:09;;;;;;;;;;;22.70;43.90;;;;;;5058791;28;20325;-65
2021/05/15 11:21:38;;;;;;;;;;;22.70;43.40;;;;;;5070470;28;19911;-67
2021/05/15 11:24:04;;;;;;;;;;;22.80;43.70;;;;;;5071966;28;19912;-68
2021/05/15 11:26:49;;;;;;;;;;;22.70;42.20;;;;;;5071552;28;19957;-66
2021/05/15 11:29:15;;;;;;;;;;;22.60;43.40;;;;;;5071989;28;19904;-68
2021/05/15 11:31:40;;;;;;;;;;;22.20;44.70;;;;;;5071913;28;19904;-68
2021/05/15 11:34:13;;;;;;;;;;;22.10;44.70;;;;;;5071752;28;19905;-68
2021/05/15 11:36:40;;;;;;;;;;;21.80;45.20;;;;;;5070192;28;19904;-67
2021/05/15 11:39:05;;;;;;;;;;;21.30;46.70;;;;;;5071572;28;19912;-69
2021/05/15 11:41:31;;;;;;;;;;;21.10;47.70;;;;;;5071721;28;19911;-65
2021/05/15 11:43:56;;;;;;;;;;;21.40;48.30;;;;;;5071492;28;20318;-66
2021/05/15 11:46:24;;;;;;;;;;;21.70;46.20;;;;;;5071136;28;19987;-67
2021/05/15 11:48:52;;;;;;;;;;;22.10;44.10;;;;;;5070430;28;19911;-68
2021/05/15 11:51:20;;;;;;;;;;;22.20;43.00;;;;;;5071247;28;20548;-67
2021/05/15 11:53:47;;;;;;;;;;;22.40;42.00;;;;;;5071312;28;19910;-67
2021/05/15 11:56:12;;;;;;;;;;;22.30;42.20;;;;;;5071134;28;19908;-67
2021/05/15 11:58:45;;;;;;;;;;;22.50;41.60;;;;;;5069758;28;20393;-68
2021/05/15 12:01:15;;;;;;;;;;;22.80;39.70;;;;;;5071258;28;19904;-68
2021/05/15 12:03:40;;;;;;;;;;;22.60;40.50;;;;;;5071003;28;19912;-68
2021/05/15 12:06:14;;;;;;;;;;;22.40;40.20;;;;;;5070815;28;20019;-66
2021/05/15 12:08:39;;;;;;;;;;;22.40;40.60;;;;;;5073963;28;19904;-67
2021/05/15 12:11:05;;;;;;;;;;;22.20;44.90;;;;;;5070883;28;19957;-65
2021/05/15 12:13:34;;;;;;;;;;;21.40;62.30;;;;;;5055706;28;20457;-68
2021/05/15 12:16:03;;;;;;;;;;;19.70;64.70;;;;;;5050414;28;19904;-65
2021/05/15 12:18:29;;;;;;;;;;;18.70;75.80;;;;;;5050220;28;20370;-66
2021/05/15 12:20:55;;;;;;;;;;;18.40;79.10;;;;;;5050874;28;19911;-66
2021/05/15 12:23:22;;;;;;;;;;;18.20;77.30;;;;;;5050909;28;19905;-65
2021/05/15 12:25:56;;;;;;;;;;;18.10;75.80;;;;;;5050738;28;20350;-67
2021/05/15 12:28:23;;;;;;;;;;;18.40;76.60;;;;;;5050383;28;20464;-64
2021/05/15 12:30:52;;;;;;;;;;;18.50;74.50;;;;;;5050549;28;19904;-66
2021/05/15 12:33:19;;;;;;;;;;;18.90;66.40;;;;;;5050664;28;19905;-67
2021/05/15 12:36:01;;;;;;;;;;;19.00;60.70;;;;;;5050643;28;19905;-68
2021/05/15 12:38:31;;;;;;;;;;;19.40;65.40;;;;;;5049259;28;19962;-66
2021/05/15 12:41:06;;;;;;;;;;;19.90;62.20;;;;;;5032814;28;20421;-67
2021/05/15 12:43:32;;;;;;;;;;;20.10;58.60;;;;;;5067848;28;19909;-68
2021/05/15 12:46:09;;;;;;;;;;;20.50;58.20;;;;;;5070557;28;20007;-67
2021/05/15 12:48:39;;;;;;;;;;;20.90;58.50;;;;;;5070607;28;19931;-68
2021/05/15 12:51:06;;;;;;;;;;;21.20;57.70;;;;;;5070406;28;20015;-66
2021/05/15 12:53:31;;;;;;;;;;;21.30;52.80;;;;;;5070524;28;19934;-67
2021/05/15 12:56:00;;;;;;;;;;;21.30;51.30;;;;;;5069357;28;20251;-67
2021/05/15 12:58:26;;;;;;;;;;;21.30;52.80;;;;;;5070719;28;19904;-64
2021/05/15 13:00:55;;;;;;;;;;;21.50;49.10;;;;;;5075138;28;20317;-67
2021/05/15 13:03:22;;;;;;;;;;;21.70;49.90;;;;;;5089489;22;19920;-68
2021/05/15 13:05:48;;;;;;;;;;;21.80;47.80;;;;;;5095043;28;19963;-66
2021/05/15 13:08:14;;;;;;;;;;;21.80;47.40;;;;;;5097145;28;19918;-65
2021/05/15 13:10:39;;;;;;;;;;;22.00;46.30;;;;;;5095273;28;19904;-65
2021/05/15 13:13:05;;;;;;;;;;;22.00;45.00;;;;;;5094971;28;19904;-65
2021/05/15 13:15:31;;;;;;;;;;;22.00;43.70;;;;;;5093227;28;19911;-67
2021/05/15 13:18:23;;;;;;;;;;;22.00;43.90;;;;;;5094642;28;19908;-67
2021/05/15 13:20:49;;;;;;;;;;;21.90;43.70;;;;;;5091317;28;20405;-67
2021/05/15 13:23:17;;;;;;;;;;;21.90;43.00;;;;;;5093614;28;19904;-67
2021/05/15 13:25:42;;;;;;;;;;;21.60;41.30;;;;;;5094526;28;19908;-68
2021/05/15 13:28:08;;;;;;;;;;;21.40;42.30;;;;;;5094245;28;20404;-67
2021/05/15 13:30:33;;;;;;;;;;;21.40;42.30;;;;;;5094857;28;19911;-68
2021/05/15 13:32:59;;;;;;;;;;;21.30;41.00;;;;;;5093125;28;20554;-67
2021/05/15 13:35:24;;;;;;;;;;;21.00;43.30;;;;;;5094504;28;20336;-67
2021/05/15 13:37:50;;;;;;;;;;;21.10;42.50;;;;;;5094369;28;19904;-68
2021/05/15 13:40:16;;;;;;;;;;;21.30;42.40;;;;;;5094503;28;20370;-67
2021/05/15 13:42:43;;;;;;;;;;;21.50;41.30;;;;;;5083634;28;19905;-68
2021/05/15 13:45:08;;;;;;;;;;;21.40;41.90;;;;;;5074100;28;19912;-69
2021/05/15 13:47:34;;;;;;;;;;;21.00;42.20;;;;;;5074062;28;20294;-67
2021/05/15 13:49:59;;;;;;;;;;;21.00;43.70;;;;;;5074355;28;19911;-68
2021/05/15 13:52:25;;;;;;;;;;;21.30;42.90;;;;;;5074195;28;19931;-67
2021/05/15 13:54:51;;;;;;;;;;;21.00;43.40;;;;;;5074088;28;19957;-67
2021/05/15 13:57:17;;;;;;;;;;;21.20;43.20;;;;;;5067701;28;19985;-66
2021/05/15 13:59:42;;;;;;;;;;;21.20;44.30;;;;;;5053806;28;19909;-67
2021/05/15 14:02:08;;;;;;;;;;;21.40;43.50;;;;;;5053918;28;20263;-67
2021/05/15 14:04:33;;;;;;;;;;;21.20;41.90;;;;;;5053553;28;19912;-66
2021/05/15 14:06:59;;;;;;;;;;;21.00;42.50;;;;;;5053445;28;19937;-67
2021/05/15 14:09:24;;;;;;;;;;;21.00;42.30;;;;;;5082160;28;20369;-67
2021/05/15 14:11:49;;;;;;;;;;;21.00;42.90;;;;;;5092727;28;19999;-67
2021/05/15 14:14:15;;;;;;;;;;;21.40;43.80;;;;;;5093652;28;19904;-67
2021/05/15 14:16:40;;;;;;;;;;;21.60;41.70;;;;;;5091992;28;20021;-67
2021/05/15 14:19:06;;;;;;;;;;;21.90;40.90;;;;;;5092527;28;19904;-69
2021/05/15 14:21:31;;;;;;;;;;;22.10;40.30;;;;;;5093510;28;20297;-67
2021/05/15 14:23:57;;;;;;;;;;;22.00;41.10;;;;;;5093490;28;19904;-67